Time;durP1;ratioP1;P1;durP2;ratioP2;P2;SDS_P1;SDS_P2;PMS_P1;PMS_P2;Temp;Humidity;BMP_temperature;BMP_pressure;BME280_temperature;BME280_humidity;BME280_pressure;Samples;Min_cycle;Max_cycle;Signal;HPM_P1;HPM_P2
2021/08/10 00:01:56;;;;;;;9.00;6.37;;;14.40;99.90;;;;;;5045669;28;20187;-44
2021/08/10 00:04:23;;;;;;;8.33;6.23;;;14.30;99.90;;;;;;5039217;28;20696;-49
2021/08/10 00:06:49;;;;;;;9.93;6.93;;;14.30;99.90;;;;;;5042838;28;20839;-44
2021/08/10 00:09:16;;;;;;;8.13;6.03;;;14.30;99.90;;;;;;5026242;28;20608;-46
2021/08/10 00:11:42;;;;;;;10.10;6.23;;;14.30;99.90;;;;;;5041301;28;20191;-44
2021/08/10 00:14:10;;;;;;;11.30;6.67;;;14.30;99.90;;;;;;5036855;28;20200;-48
2021/08/10 00:16:39;;;;;;;10.70;6.57;;;14.30;99.90;;;;;;5040017;28;20270;-44
2021/08/10 00:19:05;;;;;;;12.00;6.70;;;14.30;99.90;;;;;;5043660;28;20223;-48
2021/08/10 00:21:32;;;;;;;9.53;6.20;;;14.30;99.90;;;;;;5039338;28;20199;-45
2021/08/10 00:23:58;;;;;;;12.07;6.70;;;14.30;99.90;;;;;;5027660;28;20223;-44
2021/08/10 00:26:25;;;;;;;9.77;6.50;;;14.30;99.90;;;;;;5040223;28;20245;-47
2021/08/10 00:28:52;;;;;;;7.90;5.83;;;14.20;99.90;;;;;;5042662;28;20214;-44
2021/08/10 00:31:19;;;;;;;10.83;7.10;;;14.20;99.90;;;;;;5036218;28;20736;-43
2021/08/10 00:33:48;;;;;;;10.07;6.37;;;14.20;99.90;;;;;;5042551;28;20214;-47
2021/08/10 00:36:14;;;;;;;10.00;7.10;;;14.20;99.90;;;;;;5041516;28;20199;-47
2021/08/10 00:38:41;;;;;;;11.43;7.10;;;14.20;99.90;;;;;;5040273;28;20212;-45
2021/08/10 00:41:08;;;;;;;10.50;6.40;;;14.20;99.90;;;;;;5026055;28;20201;-46
2021/08/10 00:43:41;;;;;;;8.80;6.87;;;14.10;99.90;;;;;;5039219;28;20215;-46
2021/08/10 00:46:17;;;;;;;12.40;6.77;;;14.10;99.90;;;;;;5041375;28;20226;-45
2021/08/10 00:48:44;;;;;;;9.87;6.67;;;14.10;99.90;;;;;;5048356;28;20207;-46
2021/08/10 00:51:13;;;;;;;10.47;6.93;;;14.10;99.90;;;;;;5049806;28;20206;-43
2021/08/10 00:53:43;;;;;;;7.83;6.77;;;14.10;99.90;;;;;;5046798;28;20552;-45
2021/08/10 00:56:15;;;;;;;8.30;6.20;;;14.10;99.90;;;;;;5032163;28;20211;-49
2021/08/10 00:58:44;;;;;;;8.43;5.90;;;14.10;99.90;;;;;;5047362;28;20899;-45
2021/08/10 01:01:12;;;;;;;9.73;6.50;;;14.10;99.90;;;;;;5047538;28;20199;-45
2021/08/10 01:03:39;;;;;;;10.33;6.50;;;14.10;99.90;;;;;;5039435;28;20227;-43
2021/08/10 01:06:16;;;;;;;7.70;6.00;;;14.00;99.90;;;;;;5048682;28;20286;-46
2021/08/10 01:08:53;;;;;;;8.57;6.40;;;14.00;99.90;;;;;;5045833;28;20272;-45
2021/08/10 01:11:27;;;;;;;9.43;6.67;;;14.00;99.90;;;;;;5031096;28;20238;-44
2021/08/10 01:14:01;;;;;;;8.47;6.57;;;14.00;99.90;;;;;;5049158;28;20249;-47
2021/08/10 01:16:33;;;;;;;11.47;7.27;;;14.00;99.90;;;;;;5039653;28;20664;-47
2021/08/10 01:19:10;;;;;;;11.50;6.67;;;14.00;99.90;;;;;;5035584;28;20234;-44
2021/08/10 01:21:39;;;;;;;10.67;6.07;;;14.00;99.90;;;;;;5044383;28;20199;-45
2021/08/10 01:24:16;;;;;;;10.83;7.03;;;13.90;99.90;;;;;;5049959;28;20234;-48
2021/08/10 01:27:10;;;;;;;10.53;6.40;;;13.90;99.90;;;;;;5033803;28;22233;-44
2021/08/10 01:29:46;;;;;;;9.97;5.77;;;13.90;99.90;;;;;;5044199;28;20288;-46
2021/08/10 01:32:16;;;;;;;8.83;6.30;;;13.80;99.90;;;;;;5046004;28;20203;-50
2021/08/10 01:34:47;;;;;;;10.77;6.30;;;13.80;99.90;;;;;;5041571;28;20198;-43
2021/08/10 01:37:23;;;;;;;10.63;6.57;;;13.70;99.90;;;;;;5046803;28;20252;-45
2021/08/10 01:39:56;;;;;;;9.90;6.33;;;13.70;99.90;;;;;;5050280;28;20557;-47
2021/08/10 01:42:27;;;;;;;10.27;6.13;;;13.60;99.90;;;;;;5032105;28;20239;-49
2021/08/10 01:44:57;;;;;;;8.70;6.80;;;13.60;99.90;;;;;;5053487;28;20222;-42
2021/08/10 01:47:29;;;;;;;11.53;6.77;;;13.60;99.90;;;;;;5039333;28;20226;-50
2021/08/10 01:50:00;;;;;;;8.80;6.20;;;13.60;99.90;;;;;;5030961;28;20734;-43
2021/08/10 01:52:28;;;;;;;14.20;6.33;;;13.60;99.90;;;;;;5044730;28;20211;-48
2021/08/10 01:55:04;;;;;;;9.07;5.87;;;13.50;99.90;;;;;;5050290;28;20726;-46
2021/08/10 01:57:34;;;;;;;9.73;6.50;;;13.50;99.90;;;;;;5024071;28;20313;-44
2021/08/10 02:00:02;;;;;;;9.27;6.17;;;13.50;99.90;;;;;;5045714;28;20202;-46
2021/08/10 02:02:32;;;;;;;8.20;5.87;;;13.50;99.90;;;;;;5037866;28;20201;-44
2021/08/10 02:05:12;;;;;;;12.47;6.23;;;13.40;99.90;;;;;;5024980;28;20196;-46
2021/08/10 02:07:39;;;;;;;9.50;6.10;;;13.40;99.90;;;;;;5021423;28;20215;-44
2021/08/10 02:10:08;;;;;;;8.03;5.47;;;13.40;99.90;;;;;;5024536;28;20196;-43
2021/08/10 02:12:37;;;;;;;8.13;6.40;;;13.40;99.90;;;;;;5009803;28;21062;-45
2021/08/10 02:15:04;;;;;;;10.40;5.80;;;13.30;99.90;;;;;;5044556;28;20249;-43
2021/08/10 02:17:43;;;;;;;9.43;6.17;;;13.30;99.90;;;;;;5042033;28;20291;-43
2021/08/10 02:20:18;;;;;;;10.93;5.93;;;13.30;99.90;;;;;;5032557;28;20298;-50
2021/08/10 02:22:49;;;;;;;7.90;5.80;;;13.20;99.90;;;;;;5056377;28;20187;-47
2021/08/10 02:25:20;;;;;;;7.93;5.73;;;13.20;99.90;;;;;;5043494;28;20200;-46
2021/08/10 02:27:59;;;;;;;9.20;5.27;;;13.20;99.90;;;;;;5028744;28;20222;-45
2021/08/10 02:30:31;;;;;;;7.43;5.67;;;13.20;99.90;;;;;;5040090;28;20203;-52
2021/08/10 02:33:05;;;;;;;8.77;6.33;;;13.20;99.90;;;;;;5044088;28;20687;-46
2021/08/10 02:35:34;;;;;;;7.47;5.57;;;13.20;99.90;;;;;;5033736;28;20207;-45
2021/08/10 02:38:03;;;;;;;10.00;5.63;;;13.10;99.90;;;;;;5044010;28;20680;-45
2021/08/10 02:40:31;;;;;;;7.97;6.20;;;13.10;99.90;;;;;;5039738;28;20199;-46
2021/08/10 02:43:02;;;;;;;8.13;5.60;;;13.10;99.90;;;;;;5044197;28;20266;-44
2021/08/10 02:45:28;;;;;;;9.43;6.00;;;13.10;99.90;;;;;;5024644;28;20245;-51
2021/08/10 02:47:57;;;;;;;10.80;5.87;;;13.10;99.90;;;;;;5043927;28;20235;-43
2021/08/10 02:50:30;;;;;;;9.93;5.47;;;13.00;99.90;;;;;;5034847;28;20261;-46
2021/08/10 02:52:57;;;;;;;7.37;5.40;;;13.00;99.90;;;;;;5044078;28;20203;-43
2021/08/10 02:55:28;;;;;;;9.90;5.53;;;13.00;99.90;;;;;;5041533;28;20198;-44
2021/08/10 02:58:01;;;;;;;10.73;6.13;;;13.10;99.90;;;;;;5044916;28;20215;-46
2021/08/10 03:00:32;;;;;;;6.37;5.27;;;13.10;99.90;;;;;;5024519;28;20842;-49
2021/08/10 03:03:10;;;;;;;9.30;6.23;;;13.20;99.90;;;;;;5044328;28;20249;-48
2021/08/10 03:05:42;;;;;;;11.53;6.20;;;13.10;99.90;;;;;;5035113;28;20203;-44
2021/08/10 03:08:13;;;;;;;7.93;5.07;;;13.20;99.90;;;;;;5043418;28;20233;-46
2021/08/10 03:10:42;;;;;;;8.17;5.73;;;13.10;99.90;;;;;;5040180;28;20491;-43
2021/08/10 03:13:10;;;;;;;7.40;5.47;;;13.10;99.90;;;;;;5044145;28;20226;-46
2021/08/10 03:15:40;;;;;;;7.90;6.00;;;13.10;99.90;;;;;;5025578;28;20207;-43
2021/08/10 03:18:12;;;;;;;7.10;5.53;;;13.10;99.90;;;;;;5043560;28;20632;-46
2021/08/10 03:20:44;;;;;;;10.10;5.67;;;13.10;99.90;;;;;;5034168;28;20195;-43
2021/08/10 03:23:15;;;;;;;6.83;5.30;;;13.10;99.90;;;;;;5044327;28;20649;-48
2021/08/10 03:25:44;;;;;;;8.00;5.80;;;13.10;99.90;;;;;;5043077;28;20998;-46
2021/08/10 03:28:13;;;;;;;8.10;5.60;;;13.10;99.90;;;;;;5041340;28;20234;-44
2021/08/10 03:30:42;;;;;;;8.50;6.30;;;13.10;99.90;;;;;;5041524;28;20197;-47
2021/08/10 03:33:09;;;;;;;6.47;5.10;;;13.20;99.90;;;;;;5029086;28;20239;-46
2021/08/10 03:35:37;;;;;;;9.43;6.23;;;13.20;99.90;;;;;;5032752;28;20195;-49
2021/08/10 03:38:07;;;;;;;6.97;5.43;;;13.20;99.90;;;;;;5046642;28;20633;-47
2021/08/10 03:40:34;;;;;;;10.03;6.27;;;13.20;99.90;;;;;;5041003;28;20188;-48
2021/08/10 03:43:01;;;;;;;7.23;5.90;;;13.20;99.90;;;;;;5045789;28;20191;-49
2021/08/10 03:45:31;;;;;;;7.30;5.67;;;13.20;99.90;;;;;;5040627;28;20246;-50
2021/08/10 03:47:59;;;;;;;7.50;5.93;;;13.30;99.90;;;;;;5028944;28;20309;-48
2021/08/10 03:50:26;;;;;;;9.77;4.87;;;13.30;99.90;;;;;;5041269;28;20199;-43
2021/08/10 03:52:54;;;;;;;6.20;5.13;;;13.30;99.90;;;;;;5037703;28;20203;-46
2021/08/10 03:55:23;;;;;;;6.30;5.10;;;13.30;99.90;;;;;;5040738;28;20704;-44
2021/08/10 03:57:51;;;;;;;7.40;4.67;;;13.30;99.90;;;;;;5041538;28;20306;-47
2021/08/10 04:00:18;;;;;;;6.90;5.10;;;13.40;99.90;;;;;;5039896;28;20203;-47
2021/08/10 04:02:53;;;;;;;6.30;5.30;;;13.40;99.90;;;;;;5023867;28;20686;-43
2021/08/10 04:05:24;;;;;;;6.63;4.73;;;13.40;99.90;;;;;;5039886;28;20218;-51
2021/08/10 04:07:55;;;;;;;5.43;4.60;;;13.40;99.90;;;;;;5030756;28;20280;-49
2021/08/10 04:10:24;;;;;;;7.30;5.00;;;13.40;99.90;;;;;;5038470;28;20837;-46
2021/08/10 04:12:51;;;;;;;7.07;5.07;;;13.50;99.90;;;;;;5041674;28;20225;-50
2021/08/10 04:15:21;;;;;;;5.43;4.50;;;13.50;99.90;;;;;;5040000;28;20211;-48
2021/08/10 04:17:50;;;;;;;7.83;5.10;;;13.50;99.90;;;;;;5040972;28;20223;-47
2021/08/10 04:20:18;;;;;;;8.90;5.20;;;13.50;99.90;;;;;;5025903;28;20227;-45
2021/08/10 04:22:45;;;;;;;7.77;5.30;;;13.50;99.90;;;;;;5037403;28;20200;-44
2021/08/10 04:25:17;;;;;;;5.60;5.10;;;13.50;99.90;;;;;;5034286;28;20223;-45
2021/08/10 04:27:45;;;;;;;6.93;4.90;;;13.60;99.90;;;;;;5042368;28;20316;-46
2021/08/10 04:30:15;;;;;;;6.97;4.70;;;13.60;99.90;;;;;;5037822;28;20191;-46
2021/08/10 04:32:43;;;;;;;5.03;4.53;;;13.60;99.90;;;;;;5042282;28;20611;-47
2021/08/10 04:35:10;;;;;;;7.07;4.90;;;13.60;99.90;;;;;;5022117;28;20294;-48
2021/08/10 04:37:38;;;;;;;8.03;4.67;;;13.60;99.90;;;;;;5041960;28;20222;-46
2021/08/10 04:40:07;;;;;;;5.83;5.13;;;13.70;99.90;;;;;;5024862;28;20199;-49
2021/08/10 04:42:54;;;;;;;6.27;4.50;;;13.70;99.90;;;;;;5042535;28;20206;-43
2021/08/10 04:45:20;;;;;;;5.17;4.43;;;13.70;99.90;;;;;;5034684;28;20270;-47
2021/08/10 04:47:47;;;;;;;7.00;5.50;;;13.70;99.90;;;;;;5041969;28;20215;-45
2021/08/10 04:50:14;;;;;;;7.80;4.80;;;13.80;99.90;;;;;;5015069;28;20238;-46
2021/08/10 04:52:41;;;;;;;6.80;5.00;;;13.80;99.90;;;;;;5031486;28;20199;-46
2021/08/10 04:55:09;;;;;;;5.60;4.50;;;13.80;99.90;;;;;;5031242;28;20828;-45
2021/08/10 04:57:35;;;;;;;7.60;4.47;;;13.90;99.90;;;;;;5036607;28;20225;-48
2021/08/10 05:00:05;;;;;;;6.77;4.63;;;13.90;99.90;;;;;;5039221;28;20202;-44
2021/08/10 05:02:37;;;;;;;6.83;4.87;;;13.90;99.90;;;;;;5038557;28;20204;-50
2021/08/10 05:05:05;;;;;;;5.50;5.00;;;13.90;99.90;;;;;;5012896;28;20226;-47
2021/08/10 05:07:32;;;;;;;7.37;5.17;;;14.00;99.90;;;;;;5038198;28;20191;-49
2021/08/10 05:10:00;;;;;;;7.20;4.50;;;14.00;99.90;;;;;;5030138;28;20692;-45
2021/08/10 05:12:27;;;;;;;6.03;4.80;;;14.10;99.90;;;;;;5024702;28;21054;-46
2021/08/10 05:14:54;;;;;;;8.33;4.90;;;14.10;99.90;;;;;;5033647;28;20192;-49
2021/08/10 05:17:22;;;;;;;6.60;4.57;;;14.10;99.90;;;;;;5027657;28;20203;-45
2021/08/10 05:19:49;;;;;;;5.00;4.23;;;14.20;99.90;;;;;;5032068;28;20279;-50
2021/08/10 05:22:17;;;;;;;5.20;4.70;;;14.20;99.90;;;;;;5018749;28;20272;-45
2021/08/10 05:24:47;;;;;;;6.67;4.90;;;14.20;99.90;;;;;;5028153;28;20259;-45
2021/08/10 05:27:13;;;;;;;5.63;4.53;;;14.20;99.90;;;;;;5031049;28;20195;-44
2021/08/10 05:29:40;;;;;;;6.10;3.73;;;14.30;99.90;;;;;;5040266;28;20202;-48
2021/08/10 05:32:07;;;;;;;6.07;4.40;;;14.30;99.90;;;;;;5035660;28;20242;-46
2021/08/10 05:34:38;;;;;;;6.00;4.77;;;14.30;99.90;;;;;;5039728;28;20592;-49
2021/08/10 05:37:05;;;;;;;5.10;4.60;;;14.40;99.90;;;;;;5025507;28;20335;-46
2021/08/10 05:39:34;;;;;;;5.10;4.60;;;14.40;99.90;;;;;;5044484;28;20212;-43
2021/08/10 05:42:04;;;;;;;5.40;4.90;;;14.40;99.90;;;;;;5028437;28;20909;-45
2021/08/10 05:44:30;;;;;;;6.27;4.93;;;14.40;99.90;;;;;;5037261;28;20266;-48
2021/08/10 05:46:59;;;;;;;5.83;5.23;;;14.50;99.90;;;;;;5038066;28;20213;-46
2021/08/10 05:49:26;;;;;;;10.07;5.00;;;14.50;99.90;;;;;;5034804;28;20337;-44
2021/08/10 05:51:54;;;;;;;6.67;4.70;;;14.50;99.90;;;;;;5029235;28;20199;-54
2021/08/10 05:54:22;;;;;;;6.13;5.07;;;14.50;99.90;;;;;;5040201;28;20231;-51
2021/08/10 05:56:50;;;;;;;5.53;4.63;;;14.50;99.90;;;;;;5033225;28;20206;-51
2021/08/10 05:59:20;;;;;;;6.33;4.70;;;14.50;99.90;;;;;;5039205;28;20262;-47
2021/08/10 06:01:48;;;;;;;5.60;5.00;;;14.50;99.90;;;;;;5028935;28;20195;-49
2021/08/10 06:04:15;;;;;;;6.90;5.10;;;14.60;99.90;;;;;;5031317;28;20206;-51
2021/08/10 06:06:42;;;;;;;6.90;5.43;;;14.60;99.90;;;;;;5036316;28;20314;-44
2021/08/10 06:09:10;;;;;;;7.33;5.20;;;14.60;99.90;;;;;;5025096;28;20235;-47
2021/08/10 06:11:38;;;;;;;7.17;4.90;;;14.60;99.90;;;;;;5036911;28;20203;-48
2021/08/10 06:14:08;;;;;;;11.57;5.60;;;14.70;99.90;;;;;;5034802;28;20199;-47
2021/08/10 06:16:35;;;;;;;10.40;5.20;;;14.70;99.90;;;;;;5040287;28;20616;-45
2021/08/10 06:19:09;;;;;;;7.17;5.50;;;14.70;99.90;;;;;;5034266;28;20239;-47
2021/08/10 06:21:37;;;;;;;7.03;5.27;;;14.70;99.90;;;;;;5038748;28;20572;-46
2021/08/10 06:24:05;;;;;;;7.10;4.97;;;14.80;99.90;;;;;;5025053;28;20293;-46
2021/08/10 06:26:34;;;;;;;6.83;5.50;;;14.80;99.90;;;;;;5036777;28;20260;-46
2021/08/10 06:29:01;;;;;;;8.77;6.03;;;14.80;99.90;;;;;;5029207;28;20219;-49
2021/08/10 06:31:29;;;;;;;6.17;5.17;;;14.80;99.90;;;;;;5044172;28;20188;-48
2021/08/10 06:33:55;;;;;;;7.00;5.30;;;14.90;99.90;;;;;;5056209;28;20287;-51
2021/08/10 06:36:25;;;;;;;6.70;4.73;;;14.90;99.90;;;;;;5035611;28;20195;-47
2021/08/10 06:38:52;;;;;;;8.47;5.13;;;14.90;99.90;;;;;;5025539;28;20338;-46
2021/08/10 06:41:20;;;;;;;5.47;4.97;;;15.00;99.90;;;;;;5040117;28;20341;-47
2021/08/10 06:44:06;;;;;;;8.10;4.93;;;15.00;99.90;;;;;;5033690;28;20203;-46
2021/08/10 06:46:38;;;;;;;7.13;5.33;;;15.00;99.90;;;;;;5037040;28;20199;-46
2021/08/10 06:49:09;;;;;;;7.87;5.30;;;15.10;99.90;;;;;;5041941;28;20215;-48
2021/08/10 06:51:36;;;;;;;12.30;5.53;;;15.10;99.90;;;;;;5045764;28;20839;-45
2021/08/10 06:54:03;;;;;;;7.90;5.33;;;15.20;99.90;;;;;;5027765;28;20183;-46
2021/08/10 06:56:30;;;;;;;5.90;5.30;;;15.20;99.90;;;;;;5028365;28;20195;-45
2021/08/10 06:58:59;;;;;;;5.57;4.67;;;15.30;99.90;;;;;;5034771;28;20211;-47
2021/08/10 07:01:30;;;;;;;9.27;4.90;;;15.30;99.90;;;;;;5044513;28;20196;-46
2021/08/10 07:03:57;;;;;;;6.67;5.13;;;15.30;99.90;;;;;;5039939;28;20196;-52
2021/08/10 07:06:24;;;;;;;7.43;5.03;;;15.30;99.90;;;;;;5040808;28;20684;-44
2021/08/10 07:08:54;;;;;;;9.47;5.47;;;15.40;99.90;;;;;;5040314;28;20688;-45
2021/08/10 07:11:22;;;;;;;6.07;5.27;;;15.50;99.90;;;;;;5028254;28;20207;-48
2021/08/10 07:13:52;;;;;;;9.30;6.13;;;15.50;99.90;;;;;;5029971;28;20234;-48
2021/08/10 07:16:19;;;;;;;10.07;5.63;;;15.50;99.90;;;;;;5039659;28;20231;-47
2021/08/10 07:18:47;;;;;;;7.20;5.10;;;15.60;99.90;;;;;;5037929;28;20207;-49
2021/08/10 07:21:18;;;;;;;5.93;5.30;;;15.60;99.90;;;;;;5039333;28;20273;-44
2021/08/10 07:23:55;;;;;;;7.07;5.77;;;15.70;99.90;;;;;;5032987;28;20195;-48
2021/08/10 07:26:24;;;;;;;6.13;5.37;;;15.80;99.90;;;;;;5016486;28;20215;-48
2021/08/10 07:28:55;;;;;;;8.80;5.23;;;15.80;99.90;;;;;;5024364;28;20223;-47
2021/08/10 07:31:22;;;;;;;8.53;6.03;;;15.80;99.90;;;;;;5039693;28;20203;-43
2021/08/10 07:33:50;;;;;;;7.73;5.60;;;15.90;99.90;;;;;;5024072;28;20192;-50
2021/08/10 07:36:17;;;;;;;7.63;5.07;;;16.00;99.90;;;;;;5027847;28;20270;-46
2021/08/10 07:38:44;;;;;;;7.53;5.63;;;16.00;99.90;;;;;;5027382;28;21145;-50
2021/08/10 07:41:11;;;;;;;11.80;5.80;;;16.10;99.90;;;;;;5037645;28;20250;-48
2021/08/10 07:43:38;;;;;;;10.60;5.60;;;16.10;99.90;;;;;;5023133;28;20218;-48
2021/08/10 07:46:06;;;;;;;7.00;5.43;;;16.20;99.90;;;;;;5032664;28;20220;-46
2021/08/10 07:48:33;;;;;;;8.50;5.67;;;16.20;99.90;;;;;;5038987;28;20671;-49
2021/08/10 07:51:01;;;;;;;11.63;5.17;;;16.30;99.90;;;;;;5046187;28;21229;-48
2021/08/10 07:53:28;;;;;;;6.77;4.93;;;16.30;99.90;;;;;;5040466;28;20827;-48
2021/08/10 07:55:55;;;;;;;8.83;6.43;;;16.30;99.90;;;;;;5034081;28;20212;-51
2021/08/10 07:58:22;;;;;;;8.80;6.97;;;16.30;99.90;;;;;;5018690;28;20560;-48
2021/08/10 08:00:49;;;;;;;6.57;5.50;;;16.30;99.90;;;;;;5021597;28;20303;-47
2021/08/10 08:03:16;;;;;;;7.77;6.70;;;16.30;99.90;;;;;;5041312;28;20657;-48
2021/08/10 08:05:43;;;;;;;7.10;5.13;;;16.30;99.90;;;;;;5045014;28;20298;-47
2021/08/10 08:08:12;;;;;;;6.53;5.10;;;16.30;99.90;;;;;;5036619;28;20608;-48
2021/08/10 08:10:38;;;;;;;6.17;4.47;;;16.30;99.90;;;;;;5029092;28;20200;-47
2021/08/10 08:13:05;;;;;;;7.00;5.13;;;16.40;99.90;;;;;;5039937;28;20266;-46
2021/08/10 08:15:33;;;;;;;6.07;4.97;;;16.40;99.90;;;;;;5032287;28;20204;-51
2021/08/10 08:18:01;;;;;;;7.33;4.70;;;16.50;99.90;;;;;;5026169;28;20226;-46
2021/08/10 08:20:28;;;;;;;6.53;4.40;;;16.70;99.90;;;;;;5038320;28;20580;-50
2021/08/10 08:22:55;;;;;;;8.13;4.60;;;16.80;99.90;;;;;;5030154;28;20184;-48
2021/08/10 08:25:24;;;;;;;6.07;4.07;;;16.90;99.90;;;;;;5039285;28;20223;-51
2021/08/10 08:27:51;;;;;;;8.30;5.33;;;16.90;99.90;;;;;;5013362;28;20308;-47
2021/08/10 08:30:19;;;;;;;5.13;4.60;;;16.90;99.90;;;;;;5037837;28;20195;-47
2021/08/10 08:32:46;;;;;;;6.03;4.67;;;16.90;99.90;;;;;;5027780;28;20203;-47
2021/08/10 08:35:14;;;;;;;6.10;4.77;;;16.90;99.90;;;;;;5037078;28;20184;-45
2021/08/10 08:37:41;;;;;;;8.83;4.20;;;16.90;99.90;;;;;;5029968;28;20215;-48
2021/08/10 08:40:09;;;;;;;6.53;4.53;;;16.90;99.90;;;;;;5053990;28;20184;-44
2021/08/10 08:42:37;;;;;;;5.73;5.00;;;17.00;99.90;;;;;;5028064;28;20585;-51
2021/08/10 08:45:08;;;;;;;10.07;4.40;;;17.10;99.90;;;;;;5020671;28;20262;-48
2021/08/10 08:47:38;;;;;;;7.77;4.53;;;17.30;99.90;;;;;;5023950;28;20294;-51
2021/08/10 08:50:06;;;;;;;5.70;5.00;;;17.50;99.90;;;;;;5034338;28;20198;-46
2021/08/10 08:52:38;;;;;;;4.97;3.70;;;17.70;99.90;;;;;;5027990;28;20188;-49
2021/08/10 08:55:06;;;;;;;5.53;4.33;;;17.80;99.90;;;;;;5031309;28;20206;-45
2021/08/10 08:57:32;;;;;;;5.63;3.90;;;17.90;99.90;;;;;;5030631;28;20203;-44
2021/08/10 09:00:00;;;;;;;4.47;3.23;;;18.00;99.90;;;;;;5019041;28;20214;-48
2021/08/10 09:02:31;;;;;;;6.80;3.83;;;18.10;99.90;;;;;;5029742;28;20203;-45
2021/08/10 09:04:57;;;;;;;4.90;3.33;;;18.20;99.90;;;;;;5029760;28;21069;-46
2021/08/10 09:07:28;;;;;;;4.47;3.53;;;18.30;99.90;;;;;;5058900;28;20226;-45
2021/08/10 09:10:05;;;;;;;6.07;3.50;;;18.30;99.90;;;;;;5033426;28;20202;-48
2021/08/10 09:12:42;;;;;;;4.87;3.30;;;18.30;99.90;;;;;;5054205;28;20195;-47
2021/08/10 09:15:12;;;;;;;4.70;3.13;;;18.40;99.90;;;;;;5015132;28;20204;-45
2021/08/10 09:17:49;;;;;;;4.20;3.10;;;18.40;99.90;;;;;;5023270;28;20232;-49
2021/08/10 09:20:22;;;;;;;4.83;3.17;;;18.50;99.90;;;;;;5036230;28;20208;-49
2021/08/10 09:22:56;;;;;;;6.40;3.77;;;18.50;99.90;;;;;;5039374;28;20192;-44
2021/08/10 09:25:35;;;;;;;3.60;3.30;;;18.50;99.90;;;;;;5035600;28;20238;-48
2021/08/10 09:28:07;;;;;;;5.77;3.10;;;18.50;99.90;;;;;;5033174;28;20211;-45
2021/08/10 09:30:35;;;;;;;4.73;3.43;;;18.70;99.90;;;;;;5022715;28;20218;-44
2021/08/10 09:33:04;;;;;;;6.80;3.60;;;18.80;99.90;;;;;;5029056;28;20260;-48
2021/08/10 09:35:38;;;;;;;3.87;2.97;;;18.80;99.90;;;;;;5040801;28;20187;-51
2021/08/10 09:38:13;;;;;;;6.40;2.80;;;18.80;99.90;;;;;;5038414;28;20215;-46
2021/08/10 09:40:42;;;;;;;3.33;2.50;;;19.00;99.90;;;;;;5032049;28;20270;-49
2021/08/10 09:43:28;;;;;;;8.03;3.13;;;19.00;99.90;;;;;;5034998;28;20204;-45
2021/08/10 09:46:10;;;;;;;6.43;3.30;;;19.10;99.90;;;;;;5022711;28;20227;-44
2021/08/10 09:48:38;;;;;;;6.97;3.03;;;19.30;99.90;;;;;;5036765;28;20227;-47
2021/08/10 09:51:06;;;;;;;3.70;3.17;;;19.40;99.90;;;;;;5041632;28;20242;-44
2021/08/10 09:53:33;;;;;;;3.97;3.00;;;19.60;99.90;;;;;;5036429;28;20196;-46
2021/08/10 09:56:00;;;;;;;6.03;3.40;;;19.70;99.90;;;;;;5040719;28;20195;-49
2021/08/10 09:58:27;;;;;;;5.57;3.03;;;19.60;99.90;;;;;;5043916;28;20213;-46
2021/08/10 10:00:59;;;;;;;5.00;2.50;;;19.40;99.90;;;;;;5028943;28;20316;-45
2021/08/10 10:03:28;;;;;;;3.63;3.00;;;19.50;99.90;;;;;;5017128;28;20212;-45
2021/08/10 10:06:06;;;;;;;6.87;3.20;;;19.50;99.90;;;;;;5041488;28;20226;-45
2021/08/10 10:08:34;;;;;;;6.47;3.13;;;19.50;99.90;;;;;;5034538;28;20211;-47
2021/08/10 10:11:02;;;;;;;3.57;2.77;;;19.60;99.90;;;;;;5034552;28;20248;-51
2021/08/10 10:13:36;;;;;;;4.27;3.00;;;19.80;99.90;;;;;;5042552;28;20698;-51
2021/08/10 10:16:04;;;;;;;5.77;3.40;;;20.00;99.90;;;;;;5029111;28;20204;-50
2021/08/10 10:18:33;;;;;;;6.30;3.63;;;20.10;99.90;;;;;;5024926;28;20671;-49
2021/08/10 10:21:00;;;;;;;4.87;3.23;;;20.10;99.90;;;;;;5036959;28;20199;-45
2021/08/10 10:23:28;;;;;;;6.33;3.67;;;20.20;99.90;;;;;;5039886;28;20225;-44
2021/08/10 10:25:56;;;;;;;5.47;3.90;;;20.10;99.90;;;;;;5035994;28;20215;-48
2021/08/10 10:28:23;;;;;;;4.73;4.27;;;19.90;99.90;;;;;;5040375;28;20203;-45
2021/08/10 10:30:50;;;;;;;3.80;3.40;;;19.80;99.90;;;;;;5040175;28;20198;-47
2021/08/10 10:33:17;;;;;;;5.13;4.00;;;19.80;99.90;;;;;;5022330;28;20612;-45
2021/08/10 10:35:48;;;;;;;5.70;4.20;;;19.70;99.90;;;;;;5035788;28;20274;-46
2021/08/10 10:38:18;;;;;;;4.67;4.13;;;19.70;99.90;;;;;;5043671;28;20310;-43
2021/08/10 10:40:45;;;;;;;4.83;3.47;;;19.70;99.90;;;;;;5037271;28;20218;-46
2021/08/10 10:43:12;;;;;;;5.57;4.03;;;19.80;99.90;;;;;;5034349;28;20519;-46
2021/08/10 10:45:41;;;;;;;6.00;3.50;;;19.90;99.90;;;;;;5034526;28;20207;-46
2021/08/10 10:48:45;;;;;;;5.17;3.93;;;20.10;99.90;;;;;;5016888;28;20231;-45
2021/08/10 10:51:16;;;;;;;4.97;4.20;;;20.30;99.90;;;;;;4980656;28;20205;-45
2021/08/10 10:53:44;;;;;;;4.80;4.30;;;20.30;99.90;;;;;;4992222;28;20200;-45
2021/08/10 10:56:34;;;;;;;7.70;4.00;;;20.20;99.90;;;;;;5007724;28;20204;-45
2021/08/10 10:59:20;;;;;;;7.60;4.40;;;20.10;99.90;;;;;;5033972;28;20307;-43
2021/08/10 11:01:47;;;;;;;5.73;4.50;;;19.90;99.90;;;;;;5042057;28;20541;-43
2021/08/10 11:04:14;;;;;;;5.50;3.93;;;19.70;99.90;;;;;;5021457;28;20349;-46
2021/08/10 11:06:47;;;;;;;5.10;4.60;;;19.70;99.90;;;;;;5020940;28;20223;-49
2021/08/10 11:09:59;;;;;;;8.10;4.60;;;19.60;99.90;;;;;;5037893;28;20244;-48
2021/08/10 11:12:44;;;;;;;4.30;3.90;;;19.60;99.90;;;;;;5039427;28;20254;-50
2021/08/10 11:15:20;;;;;;;7.07;4.50;;;19.50;99.90;;;;;;5028616;28;20564;-46
2021/08/10 11:18:25;;;;;;;8.23;4.50;;;19.40;99.90;;;;;;5037481;28;20206;-46
2021/08/10 11:20:55;;;;;;;5.77;4.67;;;19.30;99.90;;;;;;5018289;28;20322;-45
2021/08/10 11:23:33;;;;;;;6.97;5.13;;;19.20;99.90;;;;;;5037396;28;20203;-63
2021/08/10 11:26:41;;;;;;;5.77;4.87;;;19.20;99.90;;;;;;5036570;28;20212;-44
2021/08/10 11:29:13;;;;;;;6.23;5.67;;;19.00;99.90;;;;;;5032465;28;20219;-46
2021/08/10 11:31:51;;;;;;;5.30;4.90;;;18.90;99.90;;;;;;5033039;28;20211;-43
2021/08/10 11:34:45;;;;;;;7.03;5.90;;;18.60;99.90;;;;;;5032144;28;20691;-41
2021/08/10 11:37:26;;;;;;;6.77;6.17;;;18.20;99.90;;;;;;4997291;28;20223;-44
2021/08/10 11:40:05;;;;;;;7.90;6.30;;;17.90;99.90;;;;;;5035041;28;20964;-45
2021/08/10 11:42:32;;;;;;;8.57;7.20;;;17.80;99.90;;;;;;5041673;28;20291;-40
2021/08/10 11:45:01;;;;;;;8.90;8.13;;;17.80;99.90;;;;;;5040275;28;20210;-44
2021/08/10 11:47:28;;;;;;;8.23;7.47;;;17.90;99.90;;;;;;5040655;28;20377;-39
2021/08/10 11:49:55;;;;;;;7.80;7.10;;;18.00;99.90;;;;;;5024057;28;20207;-49
2021/08/10 11:52:22;;;;;;;7.97;7.17;;;17.90;99.90;;;;;;5032941;28;20606;-39
2021/08/10 11:54:57;;;;;;;7.57;6.90;;;17.90;99.90;;;;;;5043787;28;20202;-47
2021/08/10 11:57:25;;;;;;;9.20;7.60;;;17.80;99.90;;;;;;5041043;28;20195;-39
2021/08/10 12:00:13;;;;;;;7.90;7.20;;;17.70;99.90;;;;;;5030952;28;20214;-42
2021/08/10 12:02:43;;;;;;;8.43;7.60;;;17.80;99.90;;;;;;5028627;28;20973;-42
2021/08/10 12:05:11;;;;;;;9.13;8.27;;;17.80;99.90;;;;;;5036242;28;20200;-41
2021/08/10 12:07:51;;;;;;;9.40;8.50;;;17.90;99.90;;;;;;5016170;28;20270;-43
2021/08/10 12:10:30;;;;;;;10.23;9.00;;;18.10;99.90;;;;;;5037618;28;20282;-44
2021/08/10 12:13:01;;;;;;;10.60;8.27;;;18.10;99.90;;;;;;5037556;28;20623;-40
2021/08/10 12:15:45;;;;;;;10.43;9.40;;;18.10;99.90;;;;;;5040430;28;20249;-39
2021/08/10 12:18:14;;;;;;;10.63;9.53;;;18.20;99.90;;;;;;5041859;28;20307;-43
2021/08/10 12:20:41;;;;;;;10.87;9.50;;;18.30;99.90;;;;;;5040401;28;20210;-44
2021/08/10 12:23:10;;;;;;;9.60;8.70;;;18.40;99.90;;;;;;5028560;28;20203;-40
2021/08/10 12:25:36;;;;;;;8.60;7.07;;;18.50;99.90;;;;;;5038726;28;20897;-42
2021/08/10 12:28:07;;;;;;;8.63;6.57;;;18.50;99.90;;;;;;5034037;28;20219;-43
2021/08/10 12:30:34;;;;;;;6.17;5.67;;;18.60;99.90;;;;;;5028860;28;20235;-40
2021/08/10 12:33:11;;;;;;;7.57;6.03;;;18.70;99.90;;;;;;5037824;28;20211;-46
2021/08/10 12:35:38;;;;;;;6.83;5.40;;;18.80;99.90;;;;;;5037465;28;20198;-42
2021/08/10 12:38:05;;;;;;;4.10;3.83;;;18.80;99.90;;;;;;5018788;28;20216;-48
2021/08/10 12:40:32;;;;;;;5.53;4.57;;;18.80;99.90;;;;;;5029853;28;20254;-49
2021/08/10 12:42:59;;;;;;;4.33;3.93;;;18.90;99.90;;;;;;5031062;28;20202;-46
2021/08/10 12:45:32;;;;;;;5.10;4.60;;;18.90;99.90;;;;;;5032777;28;20203;-46
2021/08/10 12:47:59;;;;;;;4.50;4.13;;;18.80;99.90;;;;;;5033588;28;20218;-48
2021/08/10 12:50:27;;;;;;;5.87;5.00;;;18.90;99.90;;;;;;5021962;28;20196;-48
2021/08/10 12:52:54;;;;;;;4.70;4.23;;;19.00;99.90;;;;;;5017975;28;20668;-48
2021/08/10 12:55:21;;;;;;;4.20;3.90;;;19.10;99.90;;;;;;5030576;28;20211;-46
2021/08/10 12:57:58;;;;;;;4.93;4.40;;;19.20;99.90;;;;;;5039726;28;20207;-46
2021/08/10 13:00:26;;;;;;;5.07;4.30;;;19.30;99.90;;;;;;5023983;28;20222;-50
2021/08/10 13:02:54;;;;;;;3.57;3.27;;;19.30;99.90;;;;;;5032839;28;20257;-48